createdAt,value
2019-04-26T00:00:17.123Z,12.75
2019-04-26T00:01:18.021Z,12.67
2019-04-26T00:02:16.635Z,12.58
2019-04-26T00:03:16.918Z,12.53
2019-04-26T00:04:17.195Z,12.67
2019-04-26T00:05:16.644Z,12.81
2019-04-26T00:06:16.695Z,12.82
2019-04-26T00:07:17.021Z,12.91
2019-04-26T00:08:17.861Z,12.96
2019-04-26T00:09:16.239Z,12.91
2019-04-26T00:10:16.528Z,12.84
2019-04-26T00:11:16.573Z,12.78
2019-04-26T00:12:16.851Z,12.78
2019-04-26T00:13:17.135Z,12.72
2019-04-26T00:14:16.779Z,12.47
2019-04-26T00:15:17.086Z,12.37
2019-04-26T00:16:17.066Z,12.32
2019-04-26T00:17:16.354Z,12.25
2019-04-26T00:18:17.106Z,12.26
2019-04-26T00:19:16.386Z,12.29
2019-04-26T00:20:17.213Z,12.22
2019-04-26T00:21:17.207Z,12.16
2019-04-26T00:22:17.190Z,12.16
2019-04-26T00:23:16.507Z,12.49
2019-04-26T00:24:17.242Z,12.36
2019-04-26T00:25:16.605Z,12.33
2019-04-26T00:26:17.630Z,12.28
2019-04-26T00:27:16.994Z,12.36
2019-04-26T00:28:16.959Z,12.40
2019-04-26T00:29:16.841Z,12.39
2019-04-26T00:30:17.196Z,12.41
2019-04-26T00:31:17.135Z,12.46
2019-04-26T00:32:17.189Z,12.37
2019-04-26T00:33:17.253Z,12.33
2019-04-26T00:34:17.481Z,12.30
2019-04-26T00:35:17.726Z,12.35
2019-04-26T00:36:17.109Z,12.33
2019-04-26T00:37:16.373Z,12.18
2019-04-26T00:38:16.645Z,12.06
2019-04-26T00:39:16.906Z,11.93
2019-04-26T00:40:16.442Z,11.91
2019-04-26T00:41:16.504Z,12.06
2019-04-26T00:42:16.768Z,12.08
2019-04-26T00:43:17.038Z,11.92
2019-04-26T00:44:16.585Z,11.81
2019-04-26T00:45:16.885Z,11.80
2019-04-26T00:46:17.162Z,11.75
2019-04-26T00:47:16.944Z,11.78
2019-04-26T00:48:16.852Z,11.64
2019-04-26T00:49:17.203Z,11.57
2019-04-26T00:50:17.118Z,11.50
2019-04-26T00:51:17.260Z,11.46
2019-04-26T00:52:17.379Z,11.43
2019-04-26T00:53:17.583Z,11.39
2019-04-26T00:54:17.773Z,11.39
2019-04-26T00:55:16.301Z,11.37
2019-04-26T00:56:16.592Z,11.34
2019-04-26T00:57:16.840Z,11.26
2019-04-26T00:58:18.435Z,11.27
2019-04-26T00:59:17.023Z,11.29
2019-04-26T01:00:16.811Z,11.29
2019-04-26T01:01:16.527Z,11.17
2019-04-26T01:02:16.806Z,11.13
2019-04-26T01:03:17.066Z,11.09
2019-04-26T01:04:17.057Z,11.06
2019-04-26T01:05:17.031Z,11.05
2019-04-26T01:06:17.024Z,11.00
2019-04-26T01:07:16.945Z,10.89
2019-04-26T01:08:17.055Z,10.82
2019-04-26T01:09:17.358Z,10.81
2019-04-26T01:10:17.706Z,10.77
2019-04-26T01:11:17.599Z,10.75
2019-04-26T01:12:17.779Z,10.72
2019-04-26T01:13:17.826Z,10.67
2019-04-26T01:14:17.845Z,10.71
2019-04-26T01:15:19.601Z,10.68
2019-04-26T01:16:17.453Z,10.71
2019-04-26T01:17:17.183Z,10.68
2019-04-26T01:18:17.967Z,10.61
2019-04-26T01:19:17.076Z,10.52
2019-04-26T01:20:17.686Z,10.50
2019-04-26T01:21:17.180Z,10.50
2019-04-26T01:22:16.802Z,10.45
2019-04-26T01:23:17.365Z,10.44
2019-04-26T01:24:17.831Z,10.41
2019-04-26T01:25:17.532Z,10.37
2019-04-26T01:26:17.843Z,10.34
2019-04-26T01:27:16.961Z,10.36
2019-04-26T01:28:17.075Z,10.29
2019-04-26T01:29:17.160Z,10.29
2019-04-26T01:30:18.226Z,10.23
2019-04-26T01:31:17.736Z,10.24
2019-04-26T01:32:17.657Z,10.17
2019-04-26T01:33:16.476Z,10.16
2019-04-26T01:34:17.728Z,10.13
2019-04-26T01:35:16.282Z,10.08
2019-04-26T01:36:16.543Z,10.17
2019-04-26T01:37:16.815Z,10.21
2019-04-26T01:38:17.077Z,10.19
2019-04-26T01:39:16.338Z,10.24
2019-04-26T01:40:16.617Z,10.16
2019-04-26T01:41:16.674Z,10.21
2019-04-26T01:42:16.936Z,10.13
2019-04-26T01:43:16.202Z,10.09
2019-04-26T01:44:16.473Z,10.02
2019-04-26T01:45:16.752Z,9.98
2019-04-26T01:46:17.012Z,9.99
2019-04-26T01:47:16.279Z,9.96
2019-04-26T01:48:16.541Z,10.01
2019-04-26T01:49:16.814Z,9.99
2019-04-26T01:50:17.140Z,9.98
2019-04-26T01:51:17.465Z,9.92
2019-04-26T01:52:16.745Z,9.84
2019-04-26T01:53:17.015Z,9.80
2019-04-26T01:54:16.271Z,9.76
2019-04-26T01:55:16.555Z,9.72
2019-04-26T01:56:16.819Z,9.72
2019-04-26T01:57:17.099Z,9.78
2019-04-26T01:58:16.359Z,9.76
2019-04-26T01:59:16.616Z,9.72
2019-04-26T02:00:16.900Z,9.78
2019-04-26T02:01:16.934Z,9.81
2019-04-26T02:02:17.201Z,9.82
2019-04-26T02:03:16.460Z,9.81
2019-04-26T02:04:16.719Z,9.82
2019-04-26T02:05:17.003Z,9.85
2019-04-26T02:06:25.146Z,9.76
2019-04-26T02:07:16.633Z,9.65
2019-04-26T02:08:16.901Z,9.64
2019-04-26T02:09:16.935Z,9.57
2019-04-26T02:10:16.207Z,9.58
2019-04-26T02:11:16.271Z,9.57
2019-04-26T02:12:16.530Z,9.57
2019-04-26T02:13:16.797Z,9.61
2019-04-26T02:14:17.057Z,9.58
2019-04-26T02:15:16.321Z,9.80
2019-04-26T02:16:16.582Z,9.81
2019-04-26T02:17:16.863Z,9.75
2019-04-26T02:18:17.124Z,9.68
2019-04-26T02:19:16.386Z,9.59
2019-04-26T02:20:16.653Z,9.57
2019-04-26T02:21:16.710Z,9.48
2019-04-26T02:22:16.970Z,9.48
2019-04-26T02:23:16.244Z,9.44
2019-04-26T02:24:16.509Z,9.41
2019-04-26T02:25:16.806Z,9.38
2019-04-26T02:26:17.071Z,9.47
2019-04-26T02:27:16.417Z,9.48
2019-04-26T02:28:16.689Z,9.48
2019-04-26T02:29:16.964Z,9.43
2019-04-26T02:30:16.250Z,9.36
2019-04-26T02:31:16.295Z,9.31
2019-04-26T02:32:16.566Z,9.20
2019-04-26T02:33:16.837Z,9.19
2019-04-26T02:34:17.120Z,9.19
2019-04-26T02:35:16.445Z,9.15
2019-04-26T02:36:16.719Z,9.15
2019-04-26T02:37:17.021Z,9.07
2019-04-26T02:38:16.287Z,8.99
2019-04-26T02:39:16.571Z,9.00
2019-04-26T02:40:16.841Z,8.95
2019-04-26T02:41:16.889Z,8.89
2019-04-26T02:42:17.187Z,8.88
2019-04-26T02:43:16.457Z,8.86
2019-04-26T02:44:16.729Z,8.84
2019-04-26T02:45:17.017Z,8.96
2019-04-26T02:46:16.287Z,8.86
2019-04-26T02:47:16.563Z,8.82
2019-04-26T02:48:16.870Z,8.75
2019-04-26T02:49:17.174Z,8.79
2019-04-26T02:50:16.466Z,8.78
2019-04-26T02:51:16.497Z,8.79
2019-04-26T02:52:16.777Z,8.85
2019-04-26T02:53:17.047Z,8.80
2019-04-26T02:54:16.314Z,8.79
2019-04-26T02:55:16.599Z,8.85
2019-04-26T02:56:16.867Z,8.88
2019-04-26T02:57:17.132Z,8.91
2019-04-26T02:58:16.407Z,9.05
2019-04-26T02:59:16.672Z,9.30
2019-04-26T03:00:16.960Z,9.54
2019-04-26T03:01:16.999Z,9.44
2019-04-26T03:02:16.277Z,9.34
2019-04-26T03:03:16.585Z,9.33
2019-04-26T03:04:16.852Z,9.10
2019-04-26T03:05:17.122Z,9.05
2019-04-26T03:06:16.388Z,9.17
2019-04-26T03:07:16.658Z,9.31
2019-04-26T03:08:16.934Z,9.24
2019-04-26T03:09:16.208Z,9.20
2019-04-26T03:10:16.542Z,9.36
2019-04-26T03:11:17.367Z,9.59
2019-04-26T03:12:16.263Z,9.45
2019-04-26T03:13:16.531Z,9.40
2019-04-26T03:14:16.798Z,9.71
2019-04-26T03:15:17.099Z,9.66
2019-04-26T03:16:16.381Z,9.81
2019-04-26T03:17:16.658Z,9.75
2019-04-26T03:18:16.960Z,9.72
2019-04-26T03:19:16.258Z,9.86
2019-04-26T03:20:16.569Z,9.84
2019-04-26T03:21:16.628Z,9.74
2019-04-26T03:22:16.901Z,9.86
2019-04-26T03:23:17.194Z,9.82
2019-04-26T03:24:16.494Z,9.54
2019-04-26T03:25:16.754Z,9.58
2019-04-26T03:26:17.030Z,9.53
2019-04-26T03:27:16.305Z,9.45
2019-04-26T03:28:17.002Z,9.37
2019-04-26T03:29:16.290Z,9.33
2019-04-26T03:30:21.372Z,9.36
2019-04-26T03:31:16.738Z,9.30
2019-04-26T03:32:17.170Z,9.29
2019-04-26T03:33:16.929Z,9.23
2019-04-26T03:34:16.565Z,9.48
2019-04-26T03:35:16.517Z,9.51
2019-04-26T03:36:16.805Z,9.53
2019-04-26T03:37:20.575Z,9.55
2019-04-26T03:38:17.096Z,9.62
2019-04-26T03:39:16.370Z,9.62
2019-04-26T03:40:16.670Z,9.65
2019-04-26T03:41:16.722Z,9.59
2019-04-26T03:42:16.984Z,9.57
2019-04-26T03:43:16.254Z,9.53
2019-04-26T03:44:16.528Z,9.40
2019-04-26T03:45:16.813Z,9.31
2019-04-26T03:46:17.078Z,9.26
2019-04-26T03:47:16.353Z,9.23
2019-04-26T03:48:16.614Z,9.27
2019-04-26T03:49:16.886Z,9.41
2019-04-26T03:50:17.190Z,9.41
2019-04-26T03:51:17.205Z,9.43
2019-04-26T03:52:16.475Z,9.30
2019-04-26T03:53:16.734Z,9.37
2019-04-26T03:54:17.020Z,9.41
2019-04-26T03:55:16.300Z,9.40
2019-04-26T03:56:16.569Z,9.27
2019-04-26T03:57:16.845Z,9.23
2019-04-26T03:58:17.150Z,9.13
2019-04-26T03:59:16.509Z,9.10
2019-04-26T04:00:16.791Z,9.15
2019-04-26T04:01:16.829Z,9.15
2019-04-26T04:02:17.116Z,9.05
2019-04-26T04:03:16.421Z,9.15
2019-04-26T04:04:16.706Z,9.09
2019-04-26T04:05:17.008Z,9.20
2019-04-26T04:06:16.304Z,9.19
2019-04-26T04:07:16.574Z,9.22
2019-04-26T04:08:16.850Z,9.26
2019-04-26T04:09:18.062Z,9.31
2019-04-26T04:10:16.465Z,9.30
2019-04-26T04:11:16.509Z,9.10
2019-04-26T04:12:16.838Z,9.05
2019-04-26T04:13:17.205Z,9.00
2019-04-26T04:14:16.556Z,8.94
2019-04-26T04:15:17.207Z,9.09
2019-04-26T04:16:16.480Z,9.16
2019-04-26T04:17:16.762Z,9.03
2019-04-26T04:18:17.031Z,9.10
2019-04-26T04:19:16.304Z,9.10
2019-04-26T04:20:16.573Z,8.94
2019-04-26T04:21:16.625Z,8.88
2019-04-26T04:22:16.892Z,8.85
2019-04-26T04:23:17.167Z,8.84
2019-04-26T04:24:16.445Z,8.99
2019-04-26T04:25:16.745Z,9.12
2019-04-26T04:26:17.022Z,9.06
2019-04-26T04:27:16.304Z,9.02
2019-04-26T04:28:16.635Z,8.99
2019-04-26T04:29:16.926Z,9.05
2019-04-26T04:30:17.215Z,8.99
2019-04-26T04:31:16.259Z,8.96
2019-04-26T04:32:16.535Z,9.05
2019-04-26T04:33:16.803Z,9.09
2019-04-26T04:34:17.077Z,9.23
2019-04-26T04:35:16.366Z,9.31
2019-04-26T04:36:16.648Z,9.27
2019-04-26T04:37:16.201Z,9.22
2019-04-26T04:38:16.563Z,9.19
2019-04-26T04:39:16.835Z,9.17
2019-04-26T04:40:17.140Z,9.26
2019-04-26T04:41:17.175Z,9.31
2019-04-26T04:42:16.464Z,9.31
2019-04-26T04:43:16.777Z,9.27
2019-04-26T04:44:16.436Z,9.29
2019-04-26T04:45:16.733Z,9.30
2019-04-26T04:46:17.095Z,9.36
2019-04-26T04:47:24.093Z,9.31
2019-04-26T04:48:17.150Z,9.23
2019-04-26T04:49:16.479Z,9.16
2019-04-26T04:50:16.761Z,9.09
2019-04-26T04:51:16.823Z,9.07
2019-04-26T04:52:17.105Z,9.16
2019-04-26T04:53:16.374Z,9.23
2019-04-26T04:54:16.644Z,9.23
2019-04-26T04:55:16.915Z,9.30
2019-04-26T04:56:17.183Z,9.17
2019-04-26T04:57:16.456Z,9.27
2019-04-26T04:58:16.962Z,9.29
2019-04-26T04:59:16.509Z,9.31
2019-04-26T05:00:16.808Z,9.33
2019-04-26T05:01:16.850Z,9.31
2019-04-26T05:02:17.125Z,9.29
2019-04-26T05:03:16.400Z,9.40
2019-04-26T05:04:16.678Z,9.37
2019-04-26T05:05:16.946Z,9.40
2019-04-26T05:06:16.223Z,9.40
2019-04-26T05:07:16.487Z,9.47
2019-04-26T05:08:16.758Z,9.48
2019-04-26T05:09:17.035Z,9.54
2019-04-26T05:10:16.303Z,9.59
2019-04-26T05:11:16.366Z,9.64
2019-04-26T05:12:16.632Z,9.65
2019-04-26T05:13:16.891Z,9.72
2019-04-26T05:14:17.150Z,9.74
2019-04-26T05:15:16.419Z,9.80
2019-04-26T05:16:16.686Z,9.78
2019-04-26T05:17:16.951Z,9.82
2019-04-26T05:18:16.222Z,9.80
2019-04-26T05:19:16.518Z,9.82
2019-04-26T05:20:16.797Z,9.91
2019-04-26T05:21:16.842Z,9.92
2019-04-26T05:22:17.128Z,9.95
2019-04-26T05:23:16.393Z,9.99
2019-04-26T05:24:16.657Z,9.96
2019-04-26T05:25:16.920Z,9.98
2019-04-26T05:26:17.186Z,9.98
2019-04-26T05:27:16.472Z,9.92
2019-04-26T05:28:16.732Z,9.88
2019-04-26T05:29:16.992Z,9.93
2019-04-26T05:30:16.300Z,9.96
2019-04-26T05:31:16.338Z,10.08
2019-04-26T05:32:16.602Z,10.10
2019-04-26T05:33:16.867Z,10.16
2019-04-26T05:34:17.138Z,10.34
2019-04-26T05:35:16.406Z,10.27
2019-04-26T05:36:16.700Z,10.29
2019-04-26T05:37:16.999Z,10.24
2019-04-26T05:38:18.455Z,10.30
2019-04-26T05:39:17.128Z,10.36
2019-04-26T05:40:16.448Z,10.44
2019-04-26T05:41:16.479Z,10.44
2019-04-26T05:42:16.756Z,10.30
2019-04-26T05:43:17.019Z,10.43
2019-04-26T05:44:16.286Z,10.41
2019-04-26T05:45:16.564Z,10.40
2019-04-26T05:46:16.837Z,10.43
2019-04-26T05:47:17.127Z,10.52
2019-04-26T05:48:16.407Z,10.37
2019-04-26T05:49:16.682Z,10.40
2019-04-26T05:50:16.961Z,10.36
2019-04-26T05:51:17.007Z,10.36
2019-04-26T05:52:16.270Z,10.34
2019-04-26T05:53:16.535Z,10.41
2019-04-26T05:54:16.801Z,10.43
2019-04-26T05:55:17.070Z,10.29
2019-04-26T05:56:16.339Z,10.43
2019-04-26T05:57:16.599Z,10.50
2019-04-26T05:58:16.865Z,10.56
2019-04-26T05:59:17.133Z,10.67
2019-04-26T06:00:16.427Z,10.67
2019-04-26T06:01:16.480Z,10.71
2019-04-26T06:02:16.749Z,10.71
2019-04-26T06:03:17.081Z,10.67
2019-04-26T06:04:16.350Z,10.56
2019-04-26T06:05:16.620Z,10.48
2019-04-26T06:06:16.891Z,10.60
2019-04-26T06:07:17.174Z,10.54
2019-04-26T06:08:16.437Z,10.65
2019-04-26T06:09:16.712Z,10.60
2019-04-26T06:10:16.980Z,10.60
2019-04-26T06:11:17.022Z,10.52
2019-04-26T06:12:16.290Z,10.63
2019-04-26T06:13:16.565Z,10.68
2019-04-26T06:14:16.844Z,10.57
2019-04-26T06:15:17.140Z,10.67
2019-04-26T06:16:16.410Z,10.72
2019-04-26T06:17:16.675Z,10.74
2019-04-26T06:18:16.941Z,10.63
2019-04-26T06:19:17.198Z,10.64
2019-04-26T06:20:22.490Z,10.65
2019-04-26T06:21:16.526Z,10.51
2019-04-26T06:22:16.815Z,10.50
2019-04-26T06:23:17.105Z,10.79
2019-04-26T06:24:16.375Z,10.81
2019-04-26T06:25:16.644Z,10.79
2019-04-26T06:26:16.912Z,10.85
2019-04-26T06:27:17.176Z,10.92
2019-04-26T06:28:16.437Z,10.85
2019-04-26T06:29:16.758Z,10.81
2019-04-26T06:30:17.035Z,10.85
2019-04-26T06:31:17.083Z,10.70
2019-04-26T06:32:16.357Z,10.77
2019-04-26T06:33:16.672Z,10.85
2019-04-26T06:34:16.942Z,10.87
2019-04-26T06:35:16.216Z,10.87
2019-04-26T06:36:16.527Z,10.91
2019-04-26T06:37:16.929Z,10.78
2019-04-26T06:38:17.199Z,10.81
2019-04-26T06:39:16.464Z,10.87
2019-04-26T06:40:16.744Z,10.85
2019-04-26T06:41:16.782Z,10.78
2019-04-26T06:42:17.046Z,10.84
2019-04-26T06:43:16.312Z,10.75
2019-04-26T06:44:16.590Z,10.75
2019-04-26T06:45:16.894Z,10.70
2019-04-26T06:46:17.165Z,10.74
2019-04-26T06:47:16.427Z,10.75
2019-04-26T06:48:16.696Z,10.88
2019-04-26T06:49:16.965Z,10.84
2019-04-26T06:50:16.241Z,10.81
2019-04-26T06:51:24.026Z,10.94
2019-04-26T06:52:16.448Z,10.79
2019-04-26T06:53:16.705Z,10.68
2019-04-26T06:54:16.974Z,10.75
2019-04-26T06:55:16.294Z,10.95
2019-04-26T06:56:16.558Z,11.03
2019-04-26T06:57:16.830Z,10.87
2019-04-26T06:58:17.104Z,10.96
2019-04-26T06:59:17.288Z,11.02
2019-04-26T07:00:16.693Z,11.10
2019-04-26T07:01:16.753Z,10.99
2019-04-26T07:02:17.010Z,11.03
2019-04-26T07:03:16.290Z,10.96
2019-04-26T07:04:16.559Z,10.87
2019-04-26T07:05:16.823Z,11.03
2019-04-26T07:06:17.095Z,10.94
2019-04-26T07:07:16.359Z,10.99
2019-04-26T07:08:17.060Z,11.12
2019-04-26T07:09:16.412Z,11.06
2019-04-26T07:10:16.687Z,10.96
2019-04-26T07:11:16.747Z,10.92
2019-04-26T07:12:17.009Z,11.06
2019-04-26T07:13:16.269Z,10.91
2019-04-26T07:14:16.534Z,11.05
2019-04-26T07:15:27.908Z,11.03
2019-04-26T07:16:21.996Z,10.89
2019-04-26T07:17:16.646Z,10.89
2019-04-26T07:18:16.915Z,11.07
2019-04-26T07:19:17.194Z,11.12
2019-04-26T07:20:16.467Z,11.26
2019-04-26T07:21:16.498Z,11.20
2019-04-26T07:22:16.760Z,11.13
2019-04-26T07:23:17.027Z,11.20
2019-04-26T07:24:16.301Z,11.12
2019-04-26T07:25:17.826Z,11.07
2019-04-26T07:26:16.205Z,11.12
2019-04-26T07:27:16.476Z,11.16
2019-04-26T07:28:16.768Z,11.13
2019-04-26T07:29:17.128Z,11.06
2019-04-26T07:30:16.430Z,11.17
2019-04-26T07:31:16.469Z,10.88
2019-04-26T07:32:16.731Z,10.95
2019-04-26T07:33:16.997Z,11.20
2019-04-26T07:34:16.259Z,11.12
2019-04-26T07:35:16.525Z,11.10
2019-04-26T07:36:16.787Z,11.10
2019-04-26T07:37:17.054Z,11.07
2019-04-26T07:38:16.332Z,11.03
2019-04-26T07:39:20.158Z,11.09
2019-04-26T07:40:16.216Z,11.02
2019-04-26T07:41:16.320Z,11.00
2019-04-26T07:42:16.596Z,11.15
2019-04-26T07:43:16.857Z,11.09
2019-04-26T07:44:17.125Z,11.02
2019-04-26T07:45:16.401Z,11.10
2019-04-26T07:46:16.673Z,11.09
2019-04-26T07:47:16.941Z,11.13
2019-04-26T07:48:16.667Z,11.10
2019-04-26T07:49:16.973Z,11.16
2019-04-26T07:50:16.250Z,11.17
2019-04-26T07:51:16.297Z,11.42
2019-04-26T07:52:16.570Z,11.43
2019-04-26T07:53:16.847Z,11.49
2019-04-26T07:54:17.126Z,11.39
2019-04-26T07:55:16.390Z,11.36
2019-04-26T07:56:16.654Z,11.37
2019-04-26T07:57:16.913Z,11.42
2019-04-26T07:58:17.198Z,11.30
2019-04-26T07:59:16.508Z,11.49
2019-04-26T08:00:16.791Z,11.54
2019-04-26T08:01:16.847Z,11.47
2019-04-26T08:02:17.105Z,11.42
2019-04-26T08:03:16.364Z,11.53
2019-04-26T08:04:16.640Z,11.55
2019-04-26T08:05:16.926Z,11.60
2019-04-26T08:06:17.202Z,11.53
2019-04-26T08:07:16.482Z,11.44
2019-04-26T08:08:16.757Z,11.34
2019-04-26T08:09:26.176Z,11.54
2019-04-26T08:10:16.902Z,11.57
2019-04-26T08:11:16.950Z,11.60
2019-04-26T08:12:16.215Z,11.70
2019-04-26T08:13:16.491Z,11.61
2019-04-26T08:14:16.754Z,11.81
2019-04-26T08:15:17.044Z,11.82
2019-04-26T08:16:16.318Z,11.65
2019-04-26T08:17:16.593Z,11.63
2019-04-26T08:18:16.849Z,11.54
2019-04-26T08:19:17.143Z,11.49
2019-04-26T08:20:16.434Z,11.68
2019-04-26T08:21:18.120Z,11.72
2019-04-26T08:22:21.553Z,11.77
2019-04-26T08:23:28.077Z,11.81
2019-04-26T08:24:16.946Z,11.75
2019-04-26T08:25:17.578Z,11.57
2019-04-26T08:26:17.000Z,11.67
2019-04-26T08:27:22.493Z,11.60
2019-04-26T08:28:16.516Z,11.63
2019-04-26T08:29:16.881Z,11.55
2019-04-26T08:30:18.873Z,11.67
2019-04-26T08:31:19.967Z,11.50
2019-04-26T08:32:16.539Z,11.53
2019-04-26T08:33:17.852Z,11.67
2019-04-26T08:34:16.734Z,11.51
2019-04-26T08:35:20.455Z,11.51
2019-04-26T08:36:17.633Z,11.58
2019-04-26T08:37:18.989Z,11.78
2019-04-26T08:38:20.765Z,11.78
2019-04-26T08:39:18.025Z,11.70
2019-04-26T08:40:22.945Z,11.70
2019-04-26T08:41:16.338Z,11.53
2019-04-26T08:42:19.909Z,11.61
2019-04-26T08:43:16.263Z,11.67
2019-04-26T08:44:17.216Z,11.49
2019-04-26T08:45:16.728Z,11.51
2019-04-26T08:46:17.022Z,11.57
2019-04-26T08:47:21.458Z,11.57
2019-04-26T08:48:17.239Z,11.51
2019-04-26T08:49:17.532Z,11.53
2019-04-26T08:50:17.667Z,11.47
2019-04-26T08:51:20.456Z,11.63
2019-04-26T08:52:16.264Z,11.80
2019-04-26T08:53:16.526Z,11.70
2019-04-26T08:54:16.790Z,11.57
2019-04-26T08:55:17.057Z,11.75
2019-04-26T08:56:16.683Z,11.44
2019-04-26T08:57:17.021Z,11.55
2019-04-26T08:58:16.279Z,11.65
2019-04-26T08:59:16.539Z,11.60
2019-04-26T09:00:16.889Z,11.70
2019-04-26T09:01:16.948Z,11.75
2019-04-26T09:02:16.210Z,11.86
2019-04-26T09:03:16.478Z,11.86
2019-04-26T09:04:16.752Z,11.78
2019-04-26T09:05:17.038Z,11.81
2019-04-26T09:06:16.298Z,11.75
2019-04-26T09:07:16.555Z,11.53
2019-04-26T09:08:16.827Z,11.57
2019-04-26T09:09:18.074Z,11.63
2019-04-26T09:10:17.095Z,11.77
2019-04-26T09:11:25.737Z,11.80
2019-04-26T09:12:22.749Z,11.72
2019-04-26T09:13:16.890Z,11.72
2019-04-26T09:14:17.153Z,11.65
2019-04-26T09:15:16.422Z,11.50
2019-04-26T09:16:16.810Z,11.53
2019-04-26T09:17:17.190Z,11.57
2019-04-26T09:18:16.460Z,11.61
2019-04-26T09:19:16.770Z,11.47
2019-04-26T09:20:27.978Z,11.50
2019-04-26T09:21:17.637Z,11.63
2019-04-26T09:22:16.637Z,11.68
2019-04-26T09:23:16.902Z,11.63
2019-04-26T09:24:17.186Z,11.61
2019-04-26T09:25:16.447Z,11.64
2019-04-26T09:26:16.751Z,11.65
2019-04-26T09:27:20.505Z,11.67
2019-04-26T09:28:16.629Z,11.42
2019-04-26T09:29:16.897Z,11.51
2019-04-26T09:30:17.177Z,11.57
2019-04-26T09:31:19.522Z,11.43
2019-04-26T09:32:16.418Z,11.60
2019-04-26T09:33:16.790Z,11.75
2019-04-26T09:34:16.239Z,11.70
2019-04-26T09:35:16.537Z,11.75
2019-04-26T09:36:18.162Z,11.75
2019-04-26T09:37:16.555Z,11.75
2019-04-26T09:38:16.825Z,11.72
2019-04-26T09:39:17.123Z,11.53
2019-04-26T09:40:21.493Z,11.46
2019-04-26T09:41:16.451Z,11.43
2019-04-26T09:42:16.729Z,11.49
2019-04-26T09:43:17.000Z,11.51
2019-04-26T09:44:16.294Z,11.49
2019-04-26T09:45:16.566Z,11.44
2019-04-26T09:46:16.891Z,11.50
2019-04-26T09:47:17.160Z,11.43
2019-04-26T09:48:16.436Z,11.51
2019-04-26T09:49:16.698Z,11.71
2019-04-26T09:50:17.130Z,11.71
2019-04-26T09:51:17.013Z,11.63
2019-04-26T09:52:16.284Z,11.49
2019-04-26T09:53:16.544Z,11.46
2019-04-26T09:54:16.809Z,11.55
2019-04-26T09:55:17.099Z,11.46
2019-04-26T09:56:16.354Z,11.50
2019-04-26T09:57:16.660Z,11.53
2019-04-26T09:58:16.930Z,11.47
2019-04-26T09:59:17.205Z,11.43
2019-04-26T10:00:16.489Z,11.54
2019-04-26T10:01:19.568Z,11.63
2019-04-26T10:02:16.440Z,11.40
2019-04-26T10:03:16.707Z,11.43
2019-04-26T10:04:16.977Z,11.31
2019-04-26T10:05:17.502Z,11.44
2019-04-26T10:06:16.655Z,11.50
2019-04-26T10:07:16.919Z,11.50
2019-04-26T10:08:17.193Z,11.53
2019-04-26T10:09:17.169Z,11.43
2019-04-26T10:10:22.895Z,11.49
2019-04-26T10:11:16.907Z,11.46
2019-04-26T10:12:17.177Z,11.39
2019-04-26T10:13:16.436Z,11.40
2019-04-26T10:14:16.704Z,11.43
2019-04-26T10:15:16.975Z,11.44
2019-04-26T10:16:16.247Z,11.40
2019-04-26T10:17:17.435Z,11.29
2019-04-26T10:18:20.253Z,11.29
2019-04-26T10:19:16.467Z,11.13
2019-04-26T10:20:16.734Z,11.31
2019-04-26T10:21:16.789Z,11.34
2019-04-26T10:22:17.057Z,11.29
2019-04-26T10:23:16.338Z,11.33
2019-04-26T10:24:16.611Z,11.33
2019-04-26T10:25:17.103Z,11.30
2019-04-26T10:26:16.453Z,11.36
2019-04-26T10:27:16.721Z,11.29
2019-04-26T10:28:17.126Z,11.20
2019-04-26T10:29:16.454Z,11.25
2019-04-26T10:30:16.733Z,11.27
2019-04-26T10:31:17.125Z,11.23
2019-04-26T10:32:16.861Z,11.17
2019-04-26T10:33:17.121Z,11.19
2019-04-26T10:34:16.406Z,11.20
2019-04-26T10:35:17.401Z,11.12
2019-04-26T10:36:16.290Z,11.23
2019-04-26T10:37:16.556Z,11.26
2019-04-26T10:38:19.230Z,11.25
2019-04-26T10:39:16.909Z,11.29
2019-04-26T10:40:17.211Z,11.27
2019-04-26T10:41:16.226Z,11.07
2019-04-26T10:42:16.502Z,11.30
2019-04-26T10:43:16.770Z,11.26
2019-04-26T10:44:17.038Z,11.26
2019-04-26T10:45:16.411Z,11.19
2019-04-26T10:46:16.706Z,11.20
2019-04-26T10:47:16.971Z,11.26
2019-04-26T10:48:16.226Z,11.19
2019-04-26T10:49:16.491Z,11.26
2019-04-26T10:50:16.767Z,11.30
2019-04-26T10:51:16.814Z,11.33
2019-04-26T10:52:17.133Z,11.31
2019-04-26T10:53:16.408Z,11.19
2019-04-26T10:54:16.673Z,11.22
2019-04-26T10:55:17.469Z,11.09
2019-04-26T10:56:20.132Z,11.15
2019-04-26T10:57:16.422Z,11.23
2019-04-26T10:58:16.697Z,11.23
2019-04-26T10:59:16.978Z,11.12
2019-04-26T11:00:17.933Z,11.26
2019-04-26T11:01:16.297Z,11.19
2019-04-26T11:02:16.557Z,11.25
2019-04-26T11:03:16.818Z,11.09
2019-04-26T11:04:17.104Z,11.17
2019-04-26T11:05:18.394Z,11.07
2019-04-26T11:06:16.743Z,11.12
2019-04-26T11:07:17.002Z,10.96
2019-04-26T11:08:16.277Z,10.94
2019-04-26T11:09:16.555Z,10.89
2019-04-26T11:10:16.829Z,11.03
2019-04-26T11:11:16.874Z,10.96
2019-04-26T11:12:17.143Z,11.07
2019-04-26T11:13:16.419Z,11.10
2019-04-26T11:14:18.157Z,10.99
2019-04-26T11:15:16.714Z,11.02
2019-04-26T11:16:16.979Z,10.98
2019-04-26T11:17:17.720Z,11.09
2019-04-26T11:18:19.354Z,10.98
2019-04-26T11:19:16.680Z,10.92
2019-04-26T11:20:16.964Z,11.00
2019-04-26T11:21:20.763Z,10.99
2019-04-26T11:22:28.268Z,11.06
2019-04-26T11:23:16.845Z,11.22
2019-04-26T11:24:19.340Z,11.16
2019-04-26T11:25:17.220Z,11.22
2019-04-26T11:26:16.645Z,11.10
2019-04-26T11:27:16.989Z,11.07
2019-04-26T11:28:17.082Z,11.12
2019-04-26T11:29:16.521Z,11.13
2019-04-26T11:30:20.758Z,11.17
2019-04-26T11:31:16.881Z,11.17
2019-04-26T11:32:17.156Z,11.17
2019-04-26T11:33:16.422Z,11.26
2019-04-26T11:34:19.051Z,11.30
2019-04-26T11:35:16.822Z,11.34
2019-04-26T11:36:17.097Z,11.31
2019-04-26T11:38:16.709Z,10.98
2019-04-26T11:39:16.997Z,11.05
2019-04-26T11:40:14.040Z,11.00
2019-04-26T11:40:16.378Z,10.89
2019-04-26T11:41:16.374Z,10.94
2019-04-26T11:42:16.670Z,11.00
2019-04-26T11:43:19.431Z,11.05
2019-04-26T11:44:16.346Z,11.16
2019-04-26T11:45:16.635Z,11.12
2019-04-26T11:46:17.013Z,11.12
2019-04-26T11:47:16.273Z,11.10
2019-04-26T11:48:16.531Z,11.10
2019-04-26T11:49:16.794Z,10.99
2019-04-26T11:50:17.795Z,11.03
2019-04-26T11:51:17.103Z,11.12
2019-04-26T11:52:16.377Z,11.29
2019-04-26T11:53:16.639Z,11.34
2019-04-26T11:54:20.361Z,11.30
2019-04-26T11:55:16.432Z,11.06
2019-04-26T11:56:16.705Z,11.13
2019-04-26T11:57:16.981Z,11.05
2019-04-26T11:58:17.752Z,11.22
2019-04-26T11:59:16.689Z,11.25
2019-04-26T12:00:16.969Z,11.19
2019-04-26T12:01:17.017Z,11.17
2019-04-26T12:02:17.200Z,11.30
2019-04-26T12:03:16.545Z,11.33
2019-04-26T12:04:16.853Z,11.02
2019-04-26T12:05:17.141Z,11.09
2019-04-26T12:06:16.408Z,10.94
2019-04-26T12:07:16.678Z,11.05
2019-04-26T12:08:16.948Z,11.02
2019-04-26T12:09:16.216Z,11.02
2019-04-26T12:10:16.499Z,11.06
2019-04-26T12:11:18.433Z,11.06
2019-04-26T12:12:16.990Z,10.96
2019-04-26T12:13:16.274Z,11.05
2019-04-26T12:14:20.276Z,10.94
2019-04-26T12:15:29.399Z,10.92
2019-04-26T12:16:18.581Z,11.05
2019-04-26T12:17:16.741Z,10.96
2019-04-26T12:18:17.039Z,11.12
2019-04-26T12:19:18.138Z,10.96
2019-04-26T12:20:17.117Z,11.05
2019-04-26T12:21:17.187Z,11.00
2019-04-26T12:22:16.466Z,11.03
2019-04-26T12:23:20.471Z,10.94
2019-04-26T12:24:17.130Z,10.96
2019-04-26T12:25:16.394Z,10.95
2019-04-26T12:26:17.224Z,11.00
2019-04-26T12:27:16.850Z,11.00
2019-04-26T12:28:16.269Z,10.88
2019-04-26T12:29:16.534Z,10.89
2019-04-26T12:30:16.815Z,10.89
2019-04-26T12:31:16.864Z,10.92
2019-04-26T12:32:17.323Z,10.87
2019-04-26T12:33:16.654Z,10.85
2019-04-26T12:34:17.853Z,10.98
2019-04-26T12:35:16.387Z,10.96
2019-04-26T12:36:16.660Z,10.94
2019-04-26T12:37:19.846Z,10.89
2019-04-26T12:38:16.468Z,10.74
2019-04-26T12:39:16.733Z,10.81
2019-04-26T12:40:19.330Z,10.89
2019-04-26T12:41:20.606Z,10.95
2019-04-26T12:42:16.408Z,10.98
2019-04-26T12:43:19.927Z,10.85
2019-04-26T12:44:17.089Z,10.99
2019-04-26T12:45:16.952Z,10.94
2019-04-26T12:46:16.666Z,10.79
2019-04-26T12:47:16.931Z,10.75
2019-04-26T12:48:17.193Z,10.88
2019-04-26T12:49:16.455Z,10.74
2019-04-26T12:50:16.748Z,10.84
2019-04-26T12:51:16.771Z,10.68
2019-04-26T12:52:17.346Z,10.50
2019-04-26T12:53:18.087Z,10.51
2019-04-26T12:54:16.509Z,10.51
2019-04-26T12:55:18.245Z,10.58
2019-04-26T12:56:16.480Z,10.57
2019-04-26T12:57:16.743Z,10.54
2019-04-26T12:58:17.043Z,10.60
2019-04-26T12:59:16.320Z,10.52